Houston, TX (77061)

1:27 AM CST on January 18, 2017 (GMT -0600)
SE-Svc-Cntr | | Change Station
Active Advisory: Marine Fog Advisory

Elev 46 ft 29.71 °N, 95.26 °W | Updated 1 minute ago

Mist
Mist
68.0 °F
Feels Like 68.0 °F
N
0.0
Wind Variable Wind from SE
Gusts 3.0 mph

Today
High -- | Low -- °F
--% Chance of Precip.
Yesterday
High -- | Low -- °F
Precip. -- in
Pressure 30.04 in
Visibility 1.0 miles
Clouds
Dew Point 68 °F
Humidity 100%
Rainfall 0.03 in
Snow Depth Not available.
7:16 AM 5:47 PM
Waning Gibbous, 65% visible
METAR KHOU 180653Z 07003KT 1SM BR VV004 19/18 A3003 RMK AO2 LTG DSNT SW RAE49 SLP172 P0002 T01890183
Pressure 30.04 in
Visibility 1.0 miles
Clouds
Dew Point 68 °F
Humidity 100%
Rainfall 0.03 in
Snow Depth Not available.
7:16 AM 5:47 PM
Waning Gibbous, 65% visible
METAR KHOU 180653Z 07003KT 1SM BR VV004 19/18 A3003 RMK AO2 LTG DSNT SW RAE49 SLP172 P0002 T01890183

Get Your Daily Forecast Email!

Thanks for signing up!

Be on the lookout for a verification email in your inbox.

You'll start receiving the daily forecast at 8 AM.

×

10-Day Weather Forecast

Almanac

Astronomy

Jan. 18, 2017 Rise Set
Actual Time
Civil Twilight
Nautical Twilight
Astronomical Twilight
Moon
Length of Visible Light
Length of Day
Tomorrow will be .
, % of the Moon is Illuminated

Today's Extremes

State Highs State Lows

Community

WunderPhotos

Upload Photos

1,962,540 photos uploaded!

WunderBlog® & News

Nearby

Air Quality

  Air Quality AQ Index Pollutant
Not available.

Snow Depth

Station Depth Elevation

Earthquake Activity

City Distance Mag. Time & Date
Minimum magnitude displayed is 2.5.

Coastal Water Temperatures

Place Temperature

Stations

Nearby Weather Stations

Station Location Temp. Windchill Dew Point Humidity Wind Precip. Elev Updated Type
                   

Watches & Warnings

Marine Fog Advisory
Issued: 11:43 PM CST Jan. 17, 2017 – National Weather Service

... Dense fog advisory in effect until 4 am CST Wednesday...

The National Weather Service in Houston/Galveston has issued a
dense fog advisory... which is in effect until 4 am CST Wednesday.

* Visibility... below 1 nm at times.

Precautionary/preparedness actions...

Mariners should be prepared for sudden changes in visibility over
short distances. Reduce your speed and keep a lookout for other
vessels... buoys and breakwaters. Keep your navigation lights on.
Inexperienced mariners... especially those operating smaller craft
or not equipped with radar... should consider seeking safe Harbor.